sensor_id;sensor_type;location;lat;lon;timestamp;pressure;altitude;pressure_sealevel;temperature;humidity
61271;BME280;47150;53.032;8.960;2022-08-02T00:00:13;101919.72;;;13.53;100.00
61271;BME280;47150;53.032;8.960;2022-08-02T00:02:40;101919.75;;;13.52;100.00
61271;BME280;47150;53.032;8.960;2022-08-02T00:05:07;101921.56;;;13.47;100.00
61271;BME280;47150;53.032;8.960;2022-08-02T00:07:33;101913.75;;;13.39;100.00
61271;BME280;47150;53.032;8.960;2022-08-02T00:09:59;101910.22;;;13.37;100.00
61271;BME280;47150;53.032;8.960;2022-08-02T00:12:25;101904.97;;;13.35;100.00
61271;BME280;47150;53.032;8.960;2022-08-02T00:14:50;101900.53;;;13.39;100.00
61271;BME280;47150;53.032;8.960;2022-08-02T00:17:16;101904.97;;;13.32;100.00
61271;BME280;47150;53.032;8.960;2022-08-02T00:19:42;101895.38;;;13.23;100.00
61271;BME280;47150;53.032;8.960;2022-08-02T00:22:08;101898.97;;;13.16;100.00
61271;BME280;47150;53.032;8.960;2022-08-02T00:24:34;101907.75;;;13.20;100.00
61271;BME280;47150;53.032;8.960;2022-08-02T00:26:59;101903.31;;;13.22;100.00
61271;BME280;47150;53.032;8.960;2022-08-02T00:29:28;101908.63;;;13.19;100.00
61271;BME280;47150;53.032;8.960;2022-08-02T00:31:55;101926.28;;;13.12;100.00
61271;BME280;47150;53.032;8.960;2022-08-02T00:34:21;101922.88;;;13.02;100.00
61271;BME280;47150;53.032;8.960;2022-08-02T00:36:47;101922.03;;;12.95;100.00
61271;BME280;47150;53.032;8.960;2022-08-02T00:39:12;101935.25;;;12.94;100.00
61271;BME280;47150;53.032;8.960;2022-08-02T00:41:50;101937.06;;;12.92;100.00
61271;BME280;47150;53.032;8.960;2022-08-02T00:44:19;101932.66;;;12.89;100.00
61271;BME280;47150;53.032;8.960;2022-08-02T00:46:46;101933.59;;;12.84;100.00
61271;BME280;47150;53.032;8.960;2022-08-02T00:49:13;101929.25;;;12.80;100.00
61271;BME280;47150;53.032;8.960;2022-08-02T00:51:39;101920.44;;;12.77;100.00
61271;BME280;47150;53.032;8.960;2022-08-02T00:54:05;101923.97;;;12.75;100.00
61271;BME280;47150;53.032;8.960;2022-08-02T00:56:32;101922.25;;;12.75;100.00
61271;BME280;47150;53.032;8.960;2022-08-02T00:58:57;101930.97;;;12.79;100.00
61271;BME280;47150;53.032;8.960;2022-08-02T01:01:23;101923.97;;;12.75;100.00
61271;BME280;47150;53.032;8.960;2022-08-02T01:04:12;101928.47;;;12.68;100.00
61271;BME280;47150;53.032;8.960;2022-08-02T01:06:40;101939.91;;;12.63;100.00
61271;BME280;47150;53.032;8.960;2022-08-02T01:09:07;101936.44;;;12.59;100.00
61271;BME280;47150;53.032;8.960;2022-08-02T01:11:34;101935.56;;;12.57;100.00
61271;BME280;47150;53.032;8.960;2022-08-02T01:14:11;101932.09;;;12.53;100.00
61271;BME280;47150;53.032;8.960;2022-08-02T01:16:59;101935.63;;;12.49;100.00
61271;BME280;47150;53.032;8.960;2022-08-02T01:19:39;101933.00;;;12.49;100.00
61271;BME280;47150;53.032;8.960;2022-08-02T01:30:57;101934.84;;;12.32;100.00
61271;BME280;47150;53.032;8.960;2022-08-02T01:33:34;101939.28;;;12.30;100.00
61271;BME280;47150;53.032;8.960;2022-08-02T01:36:08;101941.91;;;12.26;100.00
61271;BME280;47150;53.032;8.960;2022-08-02T01:38:39;101939.28;;;12.25;100.00
61271;BME280;47150;53.032;8.960;2022-08-02T01:41:12;101944.56;;;12.23;100.00
61271;BME280;47150;53.032;8.960;2022-08-02T01:43:43;101943.72;;;12.21;100.00
61271;BME280;47150;53.032;8.960;2022-08-02T01:46:12;101941.06;;;12.18;100.00
61271;BME280;47150;53.032;8.960;2022-08-02T01:48:41;101951.63;;;12.15;100.00
61271;BME280;47150;53.032;8.960;2022-08-02T01:51:16;101946.34;;;12.18;100.00
61271;BME280;47150;53.032;8.960;2022-08-02T01:54:04;101936.72;;;12.16;100.00
61271;BME280;47150;53.032;8.960;2022-08-02T01:56:34;101938.47;;;12.15;100.00
61271;BME280;47150;53.032;8.960;2022-08-02T01:59:00;101943.78;;;12.09;100.00
61271;BME280;47150;53.032;8.960;2022-08-02T02:01:29;101930.59;;;12.09;100.00
61271;BME280;47150;53.032;8.960;2022-08-02T02:03:56;101933.19;;;12.14;100.00
61271;BME280;47150;53.032;8.960;2022-08-02T02:06:26;101929.69;;;12.16;100.00
61271;BME280;47150;53.032;8.960;2022-08-02T02:08:52;101930.56;;;12.14;100.00
61271;BME280;47150;53.032;8.960;2022-08-02T02:11:20;101933.25;;;12.09;100.00
61271;BME280;47150;53.032;8.960;2022-08-02T02:13:46;101921.81;;;12.05;100.00
61271;BME280;47150;53.032;8.960;2022-08-02T02:16:14;101921.81;;;12.07;100.00
61271;BME280;47150;53.032;8.960;2022-08-02T02:18:41;101922.72;;;12.06;100.00
61271;BME280;47150;53.032;8.960;2022-08-02T02:21:11;101916.53;;;12.12;100.00
61271;BME280;47150;53.032;8.960;2022-08-02T02:23:37;101919.16;;;12.15;100.00
61271;BME280;47150;53.032;8.960;2022-08-02T02:26:04;101913.84;;;12.18;100.00
61271;BME280;47150;53.032;8.960;2022-08-02T02:28:31;101912.97;;;12.19;100.00
61271;BME280;47150;53.032;8.960;2022-08-02T02:31:06;101912.97;;;12.19;100.00
61271;BME280;47150;53.032;8.960;2022-08-02T02:33:37;101914.72;;;12.18;100.00
61271;BME280;47150;53.032;8.960;2022-08-02T02:36:09;101912.13;;;12.14;100.00
61271;BME280;47150;53.032;8.960;2022-08-02T02:38:35;101903.38;;;12.12;100.00
61271;BME280;47150;53.032;8.960;2022-08-02T02:41:05;101911.25;;;12.13;100.00
61271;BME280;47150;53.032;8.960;2022-08-02T02:43:32;101905.06;;;12.14;100.00
61271;BME280;47150;53.032;8.960;2022-08-02T02:46:00;101910.34;;;12.17;100.00
61271;BME280;47150;53.032;8.960;2022-08-02T02:48:29;101899.78;;;12.20;100.00
61271;BME280;47150;53.032;8.960;2022-08-02T02:50:56;101900.63;;;12.22;100.00
61271;BME280;47150;53.032;8.960;2022-08-02T02:53:23;101905.03;;;12.22;100.00
61271;BME280;47150;53.032;8.960;2022-08-02T02:55:50;101902.41;;;12.20;100.00
61271;BME280;47150;53.032;8.960;2022-08-02T02:58:17;101899.78;;;12.20;100.00
61271;BME280;47150;53.032;8.960;2022-08-02T03:00:43;101895.38;;;12.19;100.00
61271;BME280;47150;53.032;8.960;2022-08-02T03:03:28;101901.53;;;12.18;100.00
61271;BME280;47150;53.032;8.960;2022-08-02T03:05:55;101899.78;;;12.20;100.00
61271;BME280;47150;53.032;8.960;2022-08-02T03:08:20;101894.53;;;12.17;100.00
61271;BME280;47150;53.032;8.960;2022-08-02T03:10:46;101892.81;;;12.13;100.00
61271;BME280;47150;53.032;8.960;2022-08-02T03:13:13;101889.31;;;12.09;100.00
61271;BME280;47150;53.032;8.960;2022-08-02T03:15:40;101886.72;;;12.05;100.00
61271;BME280;47150;53.032;8.960;2022-08-02T03:18:06;101880.56;;;12.03;100.00
61271;BME280;47150;53.032;8.960;2022-08-02T03:20:33;101885.84;;;12.00;100.00
61271;BME280;47150;53.032;8.960;2022-08-02T03:22:59;101886.72;;;11.99;100.00
61271;BME280;47150;53.032;8.960;2022-08-02T03:25:24;101885.88;;;11.98;100.00
61271;BME280;47150;53.032;8.960;2022-08-02T03:27:50;101892.91;;;11.98;100.00
61271;BME280;47150;53.032;8.960;2022-08-02T03:30:16;101895.53;;;11.96;100.00
61271;BME280;47150;53.032;8.960;2022-08-02T03:32:43;101897.31;;;11.94;100.00
61271;BME280;47150;53.032;8.960;2022-08-02T03:35:14;101892.88;;;11.91;100.00
61271;BME280;47150;53.032;8.960;2022-08-02T03:37:42;101884.13;;;11.89;100.00
61271;BME280;47150;53.032;8.960;2022-08-02T03:40:09;101883.25;;;11.89;100.00
61271;BME280;47150;53.032;8.960;2022-08-02T03:42:38;101883.25;;;11.87;100.00
61271;BME280;47150;53.032;8.960;2022-08-02T03:45:07;101882.41;;;11.84;100.00
61271;BME280;47150;53.032;8.960;2022-08-02T03:47:35;101880.66;;;11.81;100.00
61271;BME280;47150;53.032;8.960;2022-08-02T03:50:04;101878.03;;;11.76;100.00
61271;BME280;47150;53.032;8.960;2022-08-02T03:52:32;101877.16;;;11.76;100.00
61271;BME280;47150;53.032;8.960;2022-08-02T03:54:58;101884.19;;;11.77;100.00
61271;BME280;47150;53.032;8.960;2022-08-02T03:57:24;101884.19;;;11.74;100.00
61271;BME280;47150;53.032;8.960;2022-08-02T03:59:49;101883.34;;;11.70;100.00
61271;BME280;47150;53.032;8.960;2022-08-02T04:02:15;101886.84;;;11.69;100.00
61271;BME280;47150;53.032;8.960;2022-08-02T04:04:40;101877.19;;;11.67;100.00
61271;BME280;47150;53.032;8.960;2022-08-02T04:07:06;101883.38;;;11.67;100.00
61271;BME280;47150;53.032;8.960;2022-08-02T04:09:31;101880.72;;;11.66;100.00
61271;BME280;47150;53.032;8.960;2022-08-02T04:11:56;101889.50;;;11.68;100.00
61271;BME280;47150;53.032;8.960;2022-08-02T04:14:22;101893.88;;;11.64;100.00
61271;BME280;47150;53.032;8.960;2022-08-02T04:16:55;101889.53;;;11.63;100.00
61271;BME280;47150;53.032;8.960;2022-08-02T04:22:03;101894.78;;;11.65;100.00
61271;BME280;47150;53.032;8.960;2022-08-02T04:24:35;101889.50;;;11.68;100.00
61271;BME280;47150;53.032;8.960;2022-08-02T04:27:03;101895.63;;;11.68;100.00
61271;BME280;47150;53.032;8.960;2022-08-02T04:29:31;101896.50;;;11.64;100.00
61271;BME280;47150;53.032;8.960;2022-08-02T04:31:58;101896.50;;;11.66;100.00
61271;BME280;47150;53.032;8.960;2022-08-02T04:34:25;101889.50;;;11.65;100.00
61271;BME280;47150;53.032;8.960;2022-08-02T04:36:51;101896.50;;;11.66;100.00
61271;BME280;47150;53.032;8.960;2022-08-02T04:39:18;101891.25;;;11.67;100.00
61271;BME280;47150;53.032;8.960;2022-08-02T04:41:44;101892.16;;;11.63;100.00
61271;BME280;47150;53.032;8.960;2022-08-02T04:44:11;101878.06;;;11.66;100.00
61271;BME280;47150;53.032;8.960;2022-08-02T04:46:38;101875.44;;;11.69;100.00
61271;BME280;47150;53.032;8.960;2022-08-02T04:49:05;101870.19;;;11.67;100.00
61271;BME280;47150;53.032;8.960;2022-08-02T04:51:36;101878.09;;;11.69;100.00
61271;BME280;47150;53.032;8.960;2022-08-02T04:54:03;101879.84;;;11.67;100.00
61271;BME280;47150;53.032;8.960;2022-08-02T04:56:30;101881.59;;;11.69;100.00
61271;BME280;47150;53.032;8.960;2022-08-02T04:58:55;101889.47;;;11.71;100.00
61271;BME280;47150;53.032;8.960;2022-08-02T05:01:21;101880.69;;;11.73;100.00
61271;BME280;47150;53.032;8.960;2022-08-02T05:03:46;101883.31;;;11.75;100.00
61271;BME280;47150;53.032;8.960;2022-08-02T05:06:12;101885.94;;;11.75;100.00
61271;BME280;47150;53.032;8.960;2022-08-02T05:08:37;101888.56;;;11.80;100.00
61271;BME280;47150;53.032;8.960;2022-08-02T05:11:03;101882.41;;;11.85;100.00
61271;BME280;47150;53.032;8.960;2022-08-02T05:13:28;101889.41;;;11.83;100.00
61271;BME280;47150;53.032;8.960;2022-08-02T05:15:54;101885.03;;;11.85;100.00
61271;BME280;47150;53.032;8.960;2022-08-02T05:18:19;101892.94;;;11.85;100.00
61271;BME280;47150;53.032;8.960;2022-08-02T05:20:45;101896.41;;;11.87;100.00
61271;BME280;47150;53.032;8.960;2022-08-02T05:23:11;101892.00;;;11.92;100.00
61271;BME280;47150;53.032;8.960;2022-08-02T05:25:36;101890.25;;;11.91;100.00
61271;BME280;47150;53.032;8.960;2022-08-02T05:28:02;101891.16;;;11.95;100.00
61271;BME280;47150;53.032;8.960;2022-08-02T05:30:27;101888.50;;;11.97;100.00
61271;BME280;47150;53.032;8.960;2022-08-02T05:32:53;101886.72;;;12.00;100.00
61271;BME280;47150;53.032;8.960;2022-08-02T05:35:20;101889.31;;;12.08;100.00
61271;BME280;47150;53.032;8.960;2022-08-02T05:37:48;101884.03;;;12.11;100.00
61271;BME280;47150;53.032;8.960;2022-08-02T05:40:15;101884.88;;;12.15;100.00
61271;BME280;47150;53.032;8.960;2022-08-02T05:42:41;101878.66;;;12.23;100.00
61271;BME280;47150;53.032;8.960;2022-08-02T05:45:08;101882.16;;;12.29;100.00
61271;BME280;47150;53.032;8.960;2022-08-02T05:47:34;101879.47;;;12.33;100.00
61271;BME280;47150;53.032;8.960;2022-08-02T05:50:00;101888.25;;;12.37;100.00
61271;BME280;47150;53.032;8.960;2022-08-02T05:52:35;101893.47;;;12.43;100.00
61271;BME280;47150;53.032;8.960;2022-08-02T05:55:23;101895.19;;;12.49;100.00
61271;BME280;47150;53.032;8.960;2022-08-02T06:00:48;101890.69;;;12.58;100.00
61271;BME280;47150;53.032;8.960;2022-08-02T06:03:23;101899.47;;;12.64;100.00
61271;BME280;47150;53.032;8.960;2022-08-02T06:08:43;101894.09;;;12.74;100.00
61271;BME280;47150;53.032;8.960;2022-08-02T06:11:12;101900.19;;;12.81;100.00
61271;BME280;47150;53.032;8.960;2022-08-02T06:13:41;101908.94;;;12.88;100.00
61271;BME280;47150;53.032;8.960;2022-08-02T06:16:08;101903.59;;;12.94;100.00
61271;BME280;47150;53.032;8.960;2022-08-02T06:18:35;101904.41;;;13.01;100.00
61271;BME280;47150;53.032;8.960;2022-08-02T06:21:04;101906.13;;;13.06;100.00
61271;BME280;47150;53.032;8.960;2022-08-02T06:23:31;101901.66;;;13.13;100.00
61271;BME280;47150;53.032;8.960;2022-08-02T06:25:58;101898.94;;;13.19;100.00
61271;BME280;47150;53.032;8.960;2022-08-02T06:28:26;101907.69;;;13.24;100.00
61271;BME280;47150;53.032;8.960;2022-08-02T06:30:51;101907.66;;;13.31;100.00
61271;BME280;47150;53.032;8.960;2022-08-02T06:33:19;101890.00;;;13.36;100.00
61271;BME280;47150;53.032;8.960;2022-08-02T06:41:48;101871.25;;;13.59;100.00
61271;BME280;47150;53.032;8.960;2022-08-02T06:44:16;101872.84;;;13.72;100.00
61271;BME280;47150;53.032;8.960;2022-08-02T06:46:42;101871.78;;;13.84;100.00
61271;BME280;47150;53.032;8.960;2022-08-02T06:49:07;101854.94;;;13.91;100.00
61271;BME280;47150;53.032;8.960;2022-08-02T06:51:33;101868.94;;;13.98;100.00
61271;BME280;47150;53.032;8.960;2022-08-02T06:53:59;101856.56;;;14.02;100.00
61271;BME280;47150;53.032;8.960;2022-08-02T06:56:24;101852.97;;;14.07;100.00
61271;BME280;47150;53.032;8.960;2022-08-02T06:58:50;101853.75;;;14.14;100.00
61271;BME280;47150;53.032;8.960;2022-08-02T07:01:17;101862.47;;;14.21;100.00
61271;BME280;47150;53.032;8.960;2022-08-02T07:03:43;101866.78;;;14.26;100.00
61271;BME280;47150;53.032;8.960;2022-08-02T07:06:09;101857.91;;;14.30;100.00
61271;BME280;47150;53.032;8.960;2022-08-02T07:08:36;101849.81;;;14.38;100.00
61271;BME280;47150;53.032;8.960;2022-08-02T07:11:07;101855.03;;;14.44;100.00
61271;BME280;47150;53.032;8.960;2022-08-02T07:13:33;101857.50;;;14.54;100.00
61271;BME280;47150;53.032;8.960;2022-08-02T07:15:59;101869.75;;;14.62;100.00
61271;BME280;47150;53.032;8.960;2022-08-02T07:18:26;101870.50;;;14.71;100.00
61271;BME280;47150;53.032;8.960;2022-08-02T07:20:51;101865.94;;;14.79;100.00
61271;BME280;47150;53.032;8.960;2022-08-02T07:23:17;101852.53;;;14.88;100.00
61271;BME280;47150;53.032;8.960;2022-08-02T07:25:43;101869.13;;;14.96;100.00
61271;BME280;47150;53.032;8.960;2022-08-02T07:28:10;101859.28;;;15.05;100.00
61271;BME280;47150;53.032;8.960;2022-08-02T07:30:36;101845.03;;;15.12;100.00
61271;BME280;47150;53.032;8.960;2022-08-02T07:33:02;101846.66;;;15.19;100.00
61271;BME280;47150;53.032;8.960;2022-08-02T07:35:28;101838.50;;;15.30;100.00
61271;BME280;47150;53.032;8.960;2022-08-02T07:37:54;101833.94;;;15.37;100.00
61271;BME280;47150;53.032;8.960;2022-08-02T07:40:20;101831.94;;;15.46;100.00
61271;BME280;47150;53.032;8.960;2022-08-02T07:42:52;101821.16;;;15.56;100.00
61271;BME280;47150;53.032;8.960;2022-08-02T07:45:20;101819.16;;;15.67;100.00
61271;BME280;47150;53.032;8.960;2022-08-02T07:47:47;101819.00;;;15.75;100.00
61271;BME280;47150;53.032;8.960;2022-08-02T07:50:15;101815.38;;;15.79;100.00
61271;BME280;47150;53.032;8.960;2022-08-02T07:52:42;101812.53;;;15.88;100.00
61271;BME280;47150;53.032;8.960;2022-08-02T07:55:09;101815.03;;;15.94;100.00
61271;BME280;47150;53.032;8.960;2022-08-02T07:57:37;101809.53;;;16.04;100.00
61271;BME280;47150;53.032;8.960;2022-08-02T08:00:05;101798.66;;;16.14;100.00
61271;BME280;47150;53.032;8.960;2022-08-02T08:02:33;101801.06;;;16.24;100.00
61271;BME280;47150;53.032;8.960;2022-08-02T08:04:59;101800.66;;;16.39;100.00
61271;BME280;47150;53.032;8.960;2022-08-02T08:07:24;101809.31;;;16.47;100.00
61271;BME280;47150;53.032;8.960;2022-08-02T08:09:50;101802.91;;;16.56;100.00
61271;BME280;47150;53.032;8.960;2022-08-02T08:12:16;101809.78;;;16.63;100.00
61271;BME280;47150;53.032;8.960;2022-08-02T08:14:42;101795.53;;;16.67;100.00
61271;BME280;47150;53.032;8.960;2022-08-02T08:17:08;101793.63;;;16.71;100.00
61271;BME280;47150;53.032;8.960;2022-08-02T08:19:34;101792.41;;;16.84;100.00
61271;BME280;47150;53.032;8.960;2022-08-02T08:22:00;101797.44;;;16.95;100.00
61271;BME280;47150;53.032;8.960;2022-08-02T08:24:29;101787.44;;;17.05;100.00
61271;BME280;47150;53.032;8.960;2022-08-02T08:26:55;101797.91;;;17.10;100.00
61271;BME280;47150;53.032;8.960;2022-08-02T08:29:21;101794.00;;;17.23;100.00
61271;BME280;47150;53.032;8.960;2022-08-02T08:31:48;101791.19;;;17.29;100.00
61271;BME280;47150;53.032;8.960;2022-08-02T08:34:14;101787.47;;;17.35;100.00
61271;BME280;47150;53.032;8.960;2022-08-02T08:36:41;101780.13;;;17.43;100.00
61271;BME280;47150;53.032;8.960;2022-08-02T08:39:07;101774.78;;;17.45;100.00
61271;BME280;47150;53.032;8.960;2022-08-02T08:41:34;101768.25;;;17.55;100.00
61271;BME280;47150;53.032;8.960;2022-08-02T08:44:00;101760.84;;;17.65;100.00
61271;BME280;47150;53.032;8.960;2022-08-02T08:48:59;101755.88;;;17.82;100.00
61271;BME280;47150;53.032;8.960;2022-08-02T08:51:35;101753.00;;;17.88;100.00
61271;BME280;47150;53.032;8.960;2022-08-02T08:54:03;101754.59;;;17.96;100.00
61271;BME280;47150;53.032;8.960;2022-08-02T08:56:34;101750.75;;;18.04;100.00
61271;BME280;47150;53.032;8.960;2022-08-02T08:59:03;101757.50;;;18.15;100.00
61271;BME280;47150;53.032;8.960;2022-08-02T09:01:29;101749.03;;;18.29;100.00
61271;BME280;47150;53.032;8.960;2022-08-02T09:03:56;101748.72;;;18.38;100.00
61271;BME280;47150;53.032;8.960;2022-08-02T09:06:22;101731.66;;;18.44;100.00
61271;BME280;47150;53.032;8.960;2022-08-02T09:08:48;101738.50;;;18.51;100.00
61271;BME280;47150;53.032;8.960;2022-08-02T09:11:16;101743.38;;;18.63;100.00
61271;BME280;47150;53.032;8.960;2022-08-02T09:13:57;101738.53;;;18.75;100.00
61271;BME280;47150;53.032;8.960;2022-08-02T09:16:36;101739.03;;;18.86;100.00
61271;BME280;47150;53.032;8.960;2022-08-02T09:21:51;101733.09;;;19.03;100.00
61271;BME280;47150;53.032;8.960;2022-08-02T09:24:26;101736.41;;;19.10;100.00
61271;BME280;47150;53.032;8.960;2022-08-02T09:26:51;101731.59;;;19.19;100.00
61271;BME280;47150;53.032;8.960;2022-08-02T09:29:20;101735.56;;;19.31;100.00
61271;BME280;47150;53.032;8.960;2022-08-02T09:31:47;101730.63;;;19.44;100.00
61271;BME280;47150;53.032;8.960;2022-08-02T09:34:12;101724.88;;;19.55;100.00
61271;BME280;47150;53.032;8.960;2022-08-02T09:36:45;101724.47;;;19.64;100.00
61271;BME280;47150;53.032;8.960;2022-08-02T09:39:14;101723.25;;;19.73;100.00
61271;BME280;47150;53.032;8.960;2022-08-02T09:41:42;101719.28;;;19.83;100.00
61271;BME280;47150;53.032;8.960;2022-08-02T09:44:11;101720.69;;;19.92;100.00
61271;BME280;47150;53.032;8.960;2022-08-02T09:46:39;101713.09;;;20.03;100.00
61271;BME280;47150;53.032;8.960;2022-08-02T09:51:37;101726.47;;;20.24;100.00
61271;BME280;47150;53.032;8.960;2022-08-02T09:54:07;101727.81;;;20.34;100.00
61271;BME280;47150;53.032;8.960;2022-08-02T09:56:44;101723.72;;;20.46;100.00
61271;BME280;47150;53.032;8.960;2022-08-02T09:59:18;101717.19;;;20.53;100.00
61271;BME280;47150;53.032;8.960;2022-08-02T10:01:48;101715.31;;;20.55;100.00
61271;BME280;47150;53.032;8.960;2022-08-02T10:04:14;101705.84;;;20.69;100.00
61271;BME280;47150;53.032;8.960;2022-08-02T10:06:43;101714.97;;;20.84;100.00
61271;BME280;47150;53.032;8.960;2022-08-02T10:09:10;101719.59;;;20.99;100.00
61271;BME280;47150;53.032;8.960;2022-08-02T10:11:37;101717.53;;;21.06;100.00
61271;BME280;47150;53.032;8.960;2022-08-02T10:14:05;101720.47;;;21.19;100.00
61271;BME280;47150;53.032;8.960;2022-08-02T10:16:33;101723.34;;;21.33;100.00
61271;BME280;47150;53.032;8.960;2022-08-02T10:19:00;101721.25;;;21.40;99.23
61271;BME280;47150;53.032;8.960;2022-08-02T10:21:31;101725.16;;;21.52;100.00
61271;BME280;47150;53.032;8.960;2022-08-02T10:24:11;101722.13;;;21.59;99.42
61271;BME280;47150;53.032;8.960;2022-08-02T10:26:58;101716.97;;;21.74;88.45
61271;BME280;47150;53.032;8.960;2022-08-02T10:29:36;101710.28;;;21.83;83.99
61271;BME280;47150;53.032;8.960;2022-08-02T10:32:06;101711.41;;;21.96;88.93
61271;BME280;47150;53.032;8.960;2022-08-02T10:35:03;101697.44;;;22.07;89.60
61271;BME280;47150;53.032;8.960;2022-08-02T10:37:32;101701.31;;;22.19;87.23
61271;BME280;47150;53.032;8.960;2022-08-02T10:40:01;101699.09;;;22.27;89.33
61271;BME280;47150;53.032;8.960;2022-08-02T10:42:48;101700.44;;;22.36;89.73
61271;BME280;47150;53.032;8.960;2022-08-02T10:45:16;101698.13;;;22.45;91.05
61271;BME280;47150;53.032;8.960;2022-08-02T10:48:03;101696.09;;;22.51;88.48
61271;BME280;47150;53.032;8.960;2022-08-02T10:53:29;101703.13;;;22.69;83.67
61271;BME280;47150;53.032;8.960;2022-08-02T10:56:04;101687.19;;;22.84;79.79
61271;BME280;47150;53.032;8.960;2022-08-02T10:58:31;101689.38;;;22.93;80.04
61271;BME280;47150;53.032;8.960;2022-08-02T11:01:04;101678.72;;;23.07;82.11
61271;BME280;47150;53.032;8.960;2022-08-02T11:03:56;101668.97;;;23.22;80.08
61271;BME280;47150;53.032;8.960;2022-08-02T11:06:24;101671.72;;;23.37;78.33
61271;BME280;47150;53.032;8.960;2022-08-02T11:08:49;101678.72;;;23.55;76.56
61271;BME280;47150;53.032;8.960;2022-08-02T11:11:17;101671.41;;;23.73;73.71
61271;BME280;47150;53.032;8.960;2022-08-02T11:14:03;101676.22;;;23.83;72.77
61271;BME280;47150;53.032;8.960;2022-08-02T11:19:31;101659.47;;;24.09;67.97
61271;BME280;47150;53.032;8.960;2022-08-02T11:22:09;101662.34;;;24.21;65.18
61271;BME280;47150;53.032;8.960;2022-08-02T11:24:37;101658.13;;;24.31;63.40
61271;BME280;47150;53.032;8.960;2022-08-02T11:27:06;101649.50;;;24.40;63.55
61271;BME280;47150;53.032;8.960;2022-08-02T11:29:38;101649.16;;;24.61;67.67
61271;BME280;47150;53.032;8.960;2022-08-02T11:32:23;101653.59;;;24.89;66.50
61271;BME280;47150;53.032;8.960;2022-08-02T11:34:52;101655.13;;;24.93;64.96
61271;BME280;47150;53.032;8.960;2022-08-02T11:37:32;101654.44;;;25.04;65.99
61271;BME280;47150;53.032;8.960;2022-08-02T11:40:10;101644.81;;;25.14;65.59
61271;BME280;47150;53.032;8.960;2022-08-02T11:42:39;101642.50;;;25.23;66.88
61271;BME280;47150;53.032;8.960;2022-08-02T11:45:09;101649.28;;;25.28;70.53
61271;BME280;47150;53.032;8.960;2022-08-02T11:48:05;101637.53;;;25.44;72.41
61271;BME280;47150;53.032;8.960;2022-08-02T11:50:30;101633.56;;;25.49;68.70
61271;BME280;47150;53.032;8.960;2022-08-02T11:52:56;101627.03;;;25.66;71.52
61271;BME280;47150;53.032;8.960;2022-08-02T11:55:26;101627.81;;;25.81;69.13
61271;BME280;47150;53.032;8.960;2022-08-02T11:58:00;101626.88;;;25.82;67.00
61271;BME280;47150;53.032;8.960;2022-08-02T12:00:29;101623.50;;;25.92;70.83
61271;BME280;47150;53.032;8.960;2022-08-02T12:02:54;101622.50;;;26.07;68.83
61271;BME280;47150;53.032;8.960;2022-08-02T12:05:22;101614.06;;;26.25;65.16
61271;BME280;47150;53.032;8.960;2022-08-02T12:07:50;101604.25;;;26.37;65.20
61271;BME280;47150;53.032;8.960;2022-08-02T12:10:18;101602.50;;;26.48;62.78
61271;BME280;47150;53.032;8.960;2022-08-02T12:12:56;101600.00;;;26.71;63.35
61271;BME280;47150;53.032;8.960;2022-08-02T12:15:40;101601.81;;;27.32;58.11
61271;BME280;47150;53.032;8.960;2022-08-02T12:18:11;101597.59;;;27.99;56.62
61271;BME280;47150;53.032;8.960;2022-08-02T12:21:00;101613.31;;;28.96;51.95
61271;BME280;47150;53.032;8.960;2022-08-02T12:23:27;101596.94;;;29.62;46.74
61271;BME280;47150;53.032;8.960;2022-08-02T12:26:03;101591.75;;;30.22;44.85
61271;BME280;47150;53.032;8.960;2022-08-02T12:28:35;101591.34;;;30.68;44.55
61271;BME280;47150;53.032;8.960;2022-08-02T12:31:06;101593.44;;;31.24;43.10
61271;BME280;47150;53.032;8.960;2022-08-02T12:33:47;101595.16;;;31.45;42.66
61271;BME280;47150;53.032;8.960;2022-08-02T12:36:19;101586.56;;;31.60;41.65
61271;BME280;47150;53.032;8.960;2022-08-02T12:38:56;101581.34;;;31.96;41.30
61271;BME280;47150;53.032;8.960;2022-08-02T12:41:24;101580.00;;;32.19;41.03
61271;BME280;47150;53.032;8.960;2022-08-02T12:43:52;101576.88;;;32.14;41.28
61271;BME280;47150;53.032;8.960;2022-08-02T12:46:20;101572.25;;;31.77;41.59
61271;BME280;47150;53.032;8.960;2022-08-02T12:48:47;101573.41;;;31.65;41.23
61271;BME280;47150;53.032;8.960;2022-08-02T12:51:28;101571.69;;;31.83;41.72
61271;BME280;47150;53.032;8.960;2022-08-02T12:54:15;101566.00;;;31.67;42.25
61271;BME280;47150;53.032;8.960;2022-08-02T12:56:43;101571.81;;;31.72;44.03
61271;BME280;47150;53.032;8.960;2022-08-02T12:59:09;101577.44;;;32.08;43.53
61271;BME280;47150;53.032;8.960;2022-08-02T13:01:35;101575.28;;;32.21;41.76
61271;BME280;47150;53.032;8.960;2022-08-02T13:04:01;101568.84;;;32.22;42.15
61271;BME280;47150;53.032;8.960;2022-08-02T13:06:28;101574.41;;;32.49;42.23
61271;BME280;47150;53.032;8.960;2022-08-02T13:08:54;101581.34;;;32.71;41.38
61271;BME280;47150;53.032;8.960;2022-08-02T13:11:21;101574.78;;;32.64;41.25
61271;BME280;47150;53.032;8.960;2022-08-02T13:13:47;101568.75;;;32.60;41.06
61271;BME280;47150;53.032;8.960;2022-08-02T13:16:13;101568.06;;;32.86;41.06
61271;BME280;47150;53.032;8.960;2022-08-02T13:18:39;101564.09;;;33.16;41.30
61271;BME280;47150;53.032;8.960;2022-08-02T13:21:05;101561.31;;;33.26;40.59
61271;BME280;47150;53.032;8.960;2022-08-02T13:23:33;101557.31;;;33.38;40.32
61271;BME280;47150;53.032;8.960;2022-08-02T13:25:59;101563.13;;;33.43;39.06
61271;BME280;47150;53.032;8.960;2022-08-02T13:28:25;101554.31;;;33.23;40.63